Time;durP1;ratioP1;P1;durP2;ratioP2;P2;SDS_P1;SDS_P2;PMS_P1;PMS_P2;Temp;Humidity;BMP_temperature;BMP_pressure;BME280_temperature;BME280_humidity;BME280_pressure;Samples;Min_cycle;Max_cycle;Signal;HPM_P1;HPM_P2
2023/01/10 00:00:49;;;;;;;;;5.20;2.20;;;;;6.77;67.14;101226.72;5046408;28;45427;-61
2023/01/10 00:03:14;;;;;;;;;2.25;1.00;;;;;6.94;67.30;101250.38;5048149;28;46190;-62
2023/01/10 00:05:40;;;;;;;;;3.00;1.25;;;;;6.93;67.58;101248.69;5048343;28;45341;-61
2023/01/10 00:08:06;;;;;;;;;4.75;3.00;;;;;6.80;67.44;101235.56;5045682;28;45753;-61
2023/01/10 00:10:31;;;;;;;;;5.00;2.20;;;;;6.81;66.79;101237.25;5031537;28;45509;-61
2023/01/10 00:15:41;;;;;;;;;1.20;1.00;;;;;6.68;67.66;101216.00;5010488;28;45896;-63
2023/01/10 00:18:06;;;;;;;;;6.50;2.00;;;;;6.85;67.57;101246.81;5055852;28;45484;-64
2023/01/10 00:20:32;;;;;;;;;4.50;2.75;;;;;6.89;67.67;101259.09;5055870;28;45420;-64
2023/01/10 00:22:58;;;;;;;;;1.75;1.75;;;;;6.82;67.03;101261.66;5056938;28;46086;-63
2023/01/10 00:25:23;;;;;;;;;2.75;1.75;;;;;6.79;67.09;101267.47;5057347;28;45365;-64
2023/01/10 00:27:54;;;;;;;;;3.50;1.75;;;;;6.84;66.89;101273.22;5039223;28;45469;-64
2023/01/10 00:30:19;;;;;;;;;6.00;1.20;;;;;6.83;67.46;101282.44;5058085;28;45146;-64
2023/01/10 00:32:45;;;;;;;;;5.75;3.75;;;;;6.86;67.99;101293.03;5072531;28;45689;-63
2023/01/10 00:35:11;;;;;;;;;4.00;2.50;;;;;6.71;67.45;101268.34;5057451;28;45651;-64
2023/01/10 00:37:37;;;;;;;;;6.00;2.00;;;;;6.83;66.91;101290.63;5072928;28;45729;-63
2023/01/10 00:40:07;;;;;;;;;5.80;2.80;;;;;6.85;67.51;101293.19;5057387;28;45881;-64
2023/01/10 00:45:18;;;;;;;;;5.80;2.60;;;;;6.78;67.60;101303.97;5042019;28;45335;-63
2023/01/10 00:47:44;;;;;;;;;5.40;2.40;;;;;6.80;67.55;101301.91;5072975;28;45326;-63
2023/01/10 00:50:10;;;;;;;;;8.00;5.00;;;;;6.84;67.75;101307.88;5057418;28;45779;-63
2023/01/10 00:52:36;;;;;;;;;1.00;1.00;;;;;6.84;66.88;101302.41;5057220;28;45797;-63
2023/01/10 00:55:01;;;;;;;;;1.25;1.25;;;;;6.85;67.19;101307.72;5057301;28;45437;-63
2023/01/10 00:57:27;;;;;;;;;7.50;3.00;;;;;6.63;67.71;101271.91;5057253;28;45723;-63
2023/01/10 00:59:52;;;;;;;;;2.25;2.25;;;;;6.64;67.73;101281.81;5057472;28;45421;-63
2023/01/10 01:02:18;;;;;;;;;2.00;1.75;;;;;6.56;67.22;101262.72;5056733;28;45464;-63
2023/01/10 01:04:43;;;;;;;;;5.00;2.75;;;;;6.88;67.42;101320.16;5056907;28;45479;-63
2023/01/10 01:07:09;;;;;;;;;10.00;4.00;;;;;6.84;66.94;101325.06;5038842;28;45373;-64
2023/01/10 01:10:25;;;;;;;;;6.00;2.00;;;;;6.83;67.06;101328.00;5039291;28;45512;-64
2023/01/10 01:12:20;;;;;;;;;1.80;1.80;;;;;6.74;67.33;101303.44;5041564;28;46017;-64
2023/01/10 01:14:45;;;;;;;;;2.25;2.25;;;;;6.84;67.20;101318.78;5050871;28;45607;-64
2023/01/10 01:17:11;;;;;;;;;1.00;1.00;;;;;6.81;67.20;101324.56;5054748;28;45296;-64
2023/01/10 01:19:36;;;;;;;;;1.50;1.50;;;;;6.78;67.75;101325.81;5055651;28;45458;-63
2023/01/10 01:22:02;;;;;;;;;2.00;2.00;;;;;6.74;67.88;101340.78;5021590;28;46816;-64
2023/01/10 01:24:27;;;;;;;;;1.75;1.00;;;;;6.77;67.73;101337.72;5056795;28;45279;-64
2023/01/10 01:26:53;;;;;;;;;2.00;1.25;;;;;6.72;67.74;101340.13;5055721;28;45308;-64
2023/01/10 01:29:18;;;;;;;;;6.00;3.00;;;;;6.75;67.48;101337.03;5056905;28;45169;-63
2023/01/10 01:31:44;;;;;;;;;2.00;2.00;;;;;6.74;67.85;101343.53;5056642;28;45589;-63
2023/01/10 01:34:10;;;;;;;;;3.00;2.25;;;;;6.73;67.83;101360.94;5056359;28;45218;-64
2023/01/10 01:36:35;;;;;;;;;7.00;5.25;;;;;6.72;67.88;101357.34;5072549;28;45200;-62
2023/01/10 01:39:02;;;;;;;;;2.50;1.00;;;;;6.71;68.03;101343.84;5056745;28;45339;-62
2023/01/10 01:44:16;;;;;;;;;3.40;1.00;;;;;6.71;67.57;101357.50;5055914;28;45334;-64
2023/01/10 01:46:48;;;;;;;;;2.00;1.00;;;;;6.72;67.58;101362.78;5056477;28;45181;-63
2023/01/10 01:49:16;;;;;;;;;2.00;1.20;;;;;6.69;68.24;101352.22;5038262;28;45847;-61
2023/01/10 01:51:44;;;;;;;;;2.20;1.00;;;;;6.48;68.29;101318.16;5056284;28;45413;-62
2023/01/10 01:54:10;;;;;;;;;1.00;1.00;;;;;6.67;68.61;101339.78;5071450;28;45355;-63
2023/01/10 01:56:44;;;;;;;;;2.00;2.00;;;;;6.73;68.07;101345.38;5056444;28;45469;-63
2023/01/10 01:59:52;;;;;;;;;4.20;1.60;;;;;6.72;67.91;101342.84;5071635;28;45444;-62
2023/01/10 02:02:20;;;;;;;;;3.80;2.40;;;;;6.70;68.13;101351.19;5005851;28;48264;-63
2023/01/10 02:05:15;;;;;;;;;6.20;1.80;;;;;6.63;67.74;101339.28;5037336;28;45391;-63
2023/01/10 02:07:43;;;;;;;;;3.40;2.00;;;;;6.78;68.21;101369.47;5053437;28;45329;-64
2023/01/10 02:10:12;;;;;;;;;3.60;2.60;;;;;6.76;68.19;101368.75;5038705;28;45431;-63
2023/01/10 02:12:38;;;;;;;;;2.20;1.20;;;;;6.62;68.43;101348.50;5071095;28;46466;-63
2023/01/10 02:15:04;;;;;;;;;4.50;2.00;;;;;6.78;68.33;101381.22;5071759;28;45814;-63
2023/01/10 02:17:29;;;;;;;;;5.20;3.00;;;;;6.68;67.95;101366.03;5054933;28;45972;-63
2023/01/10 02:20:03;;;;;;;;;3.25;2.50;;;;;6.72;68.06;101391.97;5020910;28;46075;-61
2023/01/10 02:22:53;;;;;;;;;2.00;2.00;;;;;6.74;68.77;101392.63;5054394;28;46622;-62
2023/01/10 02:25:26;;;;;;;;;2.00;2.00;;;;;6.60;68.29;101373.19;5055956;28;45158;-62
2023/01/10 02:28:10;;;;;;;;;1.60;1.60;;;;;6.63;68.70;101399.28;5054559;28;45531;-62
2023/01/10 02:31:03;;;;;;;;;4.40;2.00;;;;;6.57;68.70;101398.06;5053802;28;45425;-62
2023/01/10 02:33:48;;;;;;;;;4.80;2.20;;;;;6.61;69.22;101399.44;5053268;28;46599;-61
2023/01/10 02:36:33;;;;;;;;;3.20;2.00;;;;;6.61;68.78;101395.84;5016558;28;45413;-62
2023/01/10 02:39:11;;;;;;;;;4.20;1.80;;;;;6.69;68.52;101400.47;5071077;28;45334;-62
2023/01/10 02:41:39;;;;;;;;;2.00;2.00;;;;;6.71;68.73;101406.59;5037359;28;45508;-61
2023/01/10 02:44:18;;;;;;;;;5.20;1.00;;;;;6.63;68.63;101389.22;5054647;28;46036;-64
2023/01/10 02:46:45;;;;;;;;;5.60;0.60;;;;;6.72;68.67;101406.44;5053276;28;45430;-61
2023/01/10 02:49:10;;;;;;;;;2.00;1.00;;;;;6.60;68.68;101389.56;5037066;28;45431;-62
2023/01/10 02:51:36;;;;;;;;;2.50;1.00;;;;;6.70;68.70;101411.22;5054391;28;45534;-62
2023/01/10 02:54:11;;;;;;;;;5.00;1.25;;;;;6.69;68.99;101425.91;5054535;28;46319;-62
2023/01/10 02:57:08;;;;;;;;;3.00;2.00;;;;;6.64;69.13;101433.72;5053774;28;45292;-64
2023/01/10 02:59:39;;;;;;;;;1.80;1.00;;;;;6.55;69.65;101434.75;5051068;28;45354;-63
2023/01/10 03:02:15;;;;;;;;;4.20;2.60;;;;;6.53;69.21;101442.22;5070411;28;45314;-63
2023/01/10 03:04:53;;;;;;;;;1.40;1.40;;;;;6.48;69.32;101429.09;5053335;28;45610;-64
2023/01/10 03:07:23;;;;;;;;;1.60;1.60;;;;;6.50;69.27;101425.19;5036692;28;45814;-62
2023/01/10 03:10:18;;;;;;;;;5.20;1.00;;;;;6.34;69.77;101385.09;5053696;28;45543;-62
2023/01/10 03:12:57;;;;;;;;;3.20;2.40;;;;;6.62;68.88;101413.97;5070659;28;45456;-62
2023/01/10 03:15:23;;;;;;;;;4.40;1.40;;;;;6.66;68.71;101414.47;5069233;28;45581;-61
2023/01/10 03:17:52;;;;;;;;;6.00;2.00;;;;;6.67;69.13;101416.16;5036630;28;45185;-61
2023/01/10 03:20:18;;;;;;;;;3.80;2.00;;;;;6.61;68.61;101395.84;5069972;28;45515;-61
2023/01/10 03:22:44;;;;;;;;;4.00;2.00;;;;;6.73;68.62;101405.41;5054933;28;45629;-61
2023/01/10 03:25:11;;;;;;;;;1.75;1.50;;;;;6.75;69.23;101410.72;5036241;28;45559;-62
2023/01/10 03:27:41;;;;;;;;;2.80;2.60;;;;;6.73;68.77;101423.69;5054584;28;45476;-62
2023/01/10 03:30:23;;;;;;;;;0.40;0.40;;;;;6.75;68.93;101421.63;5036644;28;45586;-62
2023/01/10 03:32:49;;;;;;;;;2.80;0.00;;;;;6.78;68.78;101424.88;5037929;28;45263;-64
2023/01/10 03:35:14;;;;;;;;;2.00;0.75;;;;;6.53;69.05;101393.13;5053765;28;45949;-62
2023/01/10 03:37:53;;;;;;;;;3.75;1.75;;;;;6.76;68.86;101432.38;5036582;28;45184;-62
2023/01/10 03:40:35;;;;;;;;;3.80;1.00;;;;;6.77;69.15;101434.06;5036011;28;45490;-62
2023/01/10 03:46:20;;;;;;;;;2.00;2.00;;;;;6.83;68.54;101440.72;5054255;28;45333;-62
2023/01/10 03:48:46;;;;;;;;;1.60;1.60;;;;;6.84;68.59;101441.59;5054354;28;45482;-61
2023/01/10 03:51:11;;;;;;;;;2.75;2.75;;;;;6.73;69.12;101423.69;5036249;28;45364;-62
2023/01/10 03:53:37;;;;;;;;;2.00;2.00;;;;;6.87;68.36;101436.63;5036329;28;45306;-62
2023/01/10 03:56:03;;;;;;;;;1.50;1.50;;;;;6.84;68.71;101444.31;5054078;28;46044;-62
2023/01/10 03:58:28;;;;;;;;;8.00;1.75;;;;;6.87;68.75;101457.59;5036093;28;45319;-62
2023/01/10 04:00:54;;;;;;;;;1.25;1.25;;;;;6.84;68.38;101444.31;5036054;28;45402;-62
2023/01/10 04:03:19;;;;;;;;;2.50;1.50;;;;;6.70;68.59;101413.09;5036072;28;45325;-62
2023/01/10 04:05:44;;;;;;;;;2.25;2.00;;;;;6.92;68.40;101455.22;5053933;28;46322;-62
2023/01/10 04:08:10;;;;;;;;;2.75;1.00;;;;;6.91;68.52;101451.66;5036471;28;45856;-62
2023/01/10 04:10:36;;;;;;;;;3.75;1.75;;;;;6.95;68.61;101456.75;5053749;28;45279;-62
2023/01/10 04:13:02;;;;;;;;;2.40;1.00;;;;;6.90;68.23;101446.38;5054126;28;45517;-62
2023/01/10 04:15:28;;;;;;;;;0.00;0.00;;;;;6.99;68.49;101449.94;5010771;28;46462;-62
2023/01/10 04:17:53;;;;;;;;;7.50;2.00;;;;;6.98;68.47;101457.28;5053978;28;45765;-62
2023/01/10 04:20:19;;;;;;;;;2.25;1.25;;;;;6.78;68.61;101419.41;5054173;28;45833;-62
2023/01/10 04:22:45;;;;;;;;;3.25;2.25;;;;;7.00;68.50;101454.38;5053689;28;45314;-61
2023/01/10 04:25:10;;;;;;;;;2.50;0.50;;;;;6.80;68.48;101418.38;5053623;28;46109;-62
2023/01/10 04:27:36;;;;;;;;;1.75;1.75;;;;;7.00;68.34;101459.84;5068809;28;46036;-62
2023/01/10 04:30:02;;;;;;;;;2.00;1.00;;;;;6.86;68.54;101437.66;5053849;28;45390;-62
2023/01/10 04:32:27;;;;;;;;;2.00;2.00;;;;;7.00;68.35;101457.09;5069726;28;45287;-61
2023/01/10 04:34:53;;;;;;;;;2.00;1.00;;;;;6.77;68.62;101423.16;5068844;28;46994;-62
2023/01/10 04:37:18;;;;;;;;;5.75;1.00;;;;;6.98;68.75;101467.34;5035815;28;45412;-62
2023/01/10 04:39:44;;;;;;;;;3.25;1.00;;;;;6.77;68.98;101435.94;5053398;28;45312;-62
2023/01/10 04:42:09;;;;;;;;;5.00;2.25;;;;;6.96;69.09;101461.19;5053982;28;45587;-62
2023/01/10 04:44:35;;;;;;;;;3.50;1.75;;;;;6.98;68.92;101472.81;5053023;28;45372;-61
2023/01/10 04:47:00;;;;;;;;;2.00;1.00;;;;;6.95;68.69;101471.28;5069421;28;45284;-61
2023/01/10 04:49:26;;;;;;;;;1.50;1.50;;;;;6.77;69.10;101449.59;5054052;28;45614;-61
2023/01/10 04:51:51;;;;;;;;;2.75;2.00;;;;;6.91;69.00;101484.41;5054100;28;45615;-62
2023/01/10 04:54:21;;;;;;;;;3.75;1.75;;;;;6.88;69.12;101489.34;5069578;28;46845;-62
2023/01/10 04:56:46;;;;;;;;;2.60;2.60;;;;;6.87;69.14;101476.69;5057066;28;45397;-62
2023/01/10 04:59:12;;;;;;;;;3.00;3.00;;;;;6.82;69.71;101473.66;5039232;28;45588;-62
2023/01/10 05:01:38;;;;;;;;;6.50;2.00;;;;;6.76;69.29;101456.94;5057154;28;45300;-62
2023/01/10 05:04:04;;;;;;;;;4.75;2.00;;;;;6.79;69.35;101458.47;5056634;28;46524;-62
2023/01/10 05:06:29;;;;;;;;;2.60;1.60;;;;;6.87;69.43;101457.59;5055595;28;45257;-62
2023/01/10 05:08:55;;;;;;;;;2.00;2.00;;;;;6.90;69.46;101460.84;5038944;28;45343;-63
2023/01/10 05:11:20;;;;;;;;;1.00;0.75;;;;;6.94;68.96;101468.72;5072642;28;45546;-62
2023/01/10 05:13:45;;;;;;;;;4.25;4.00;;;;;6.93;69.50;101458.81;5056742;28;46173;-62
2023/01/10 05:16:11;;;;;;;;;1.75;1.75;;;;;6.91;69.56;101458.97;5072158;28;45345;-62
2023/01/10 05:18:36;;;;;;;;;2.75;2.75;;;;;6.78;69.28;101445.84;5038723;28;45363;-62
2023/01/10 05:21:04;;;;;;;;;5.75;2.75;;;;;6.68;69.28;101431.50;5055068;28;45376;-62
2023/01/10 05:23:29;;;;;;;;;2.00;1.00;;;;;6.77;69.74;101441.41;5039022;28;45660;-62
2023/01/10 05:25:55;;;;;;;;;3.00;2.50;;;;;6.90;69.64;101463.56;5037922;28;45378;-61
2023/01/10 05:28:21;;;;;;;;;4.50;2.00;;;;;6.72;69.60;101432.88;5038712;28;45525;-60
2023/01/10 05:30:46;;;;;;;;;2.00;2.00;;;;;6.84;69.52;101464.25;5038845;28;45357;-61
2023/01/10 05:33:12;;;;;;;;;2.50;2.00;;;;;6.86;69.82;101473.13;5056537;28;45971;-62
2023/01/10 05:35:37;;;;;;;;;2.00;2.00;;;;;6.59;69.58;101438.81;5056348;28;45416;-61
2023/01/10 05:38:03;;;;;;;;;1.75;1.75;;;;;6.85;69.37;101470.56;5056451;28;45406;-62
2023/01/10 05:40:29;;;;;;;;;2.25;2.25;;;;;6.80;69.45;101460.16;5055084;28;45759;-62
2023/01/10 05:42:54;;;;;;;;;3.00;1.75;;;;;6.76;69.82;101450.59;5071969;28;46442;-62
2023/01/10 05:45:20;;;;;;;;;1.25;1.25;;;;;6.80;69.54;101465.63;5055798;28;45187;-62
2023/01/10 05:47:45;;;;;;;;;1.00;1.00;;;;;6.80;69.66;101467.50;5056757;28;45264;-62
2023/01/10 05:50:11;;;;;;;;;3.00;3.00;;;;;6.80;70.18;101459.31;5056537;28;45349;-62
2023/01/10 05:52:36;;;;;;;;;1.75;1.75;;;;;6.73;70.48;101464.59;5056468;28;46564;-62
2023/01/10 05:55:02;;;;;;;;;1.00;1.00;;;;;6.75;70.39;101451.63;5056007;28;45958;-62
2023/01/10 05:57:27;;;;;;;;;5.50;2.50;;;;;6.79;70.07;101458.47;5056594;28;45793;-62
2023/01/10 05:59:53;;;;;;;;;1.00;1.00;;;;;6.79;69.48;101458.47;5038454;28;45524;-62
2023/01/10 06:02:18;;;;;;;;;3.50;3.00;;;;;6.83;69.65;101459.81;5055787;28;45497;-63
2023/01/10 06:04:44;;;;;;;;;4.25;2.25;;;;;6.59;69.76;101425.19;5055988;28;45535;-62
2023/01/10 06:07:09;;;;;;;;;6.75;4.00;;;;;6.80;69.58;101452.00;5055749;28;45409;-62
2023/01/10 06:09:35;;;;;;;;;3.50;2.00;;;;;6.47;69.80;101405.59;5054947;28;45632;-62
2023/01/10 06:12:00;;;;;;;;;3.00;3.00;;;;;6.68;70.02;101448.75;5037695;28;45523;-62
2023/01/10 06:14:26;;;;;;;;;1.75;0.75;;;;;6.67;70.13;101457.09;5055874;28;45422;-62
2023/01/10 06:16:51;;;;;;;;;2.50;2.50;;;;;6.63;70.30;101451.13;5056269;28;45377;-63
2023/01/10 06:19:17;;;;;;;;;2.75;2.75;;;;;6.72;70.55;101457.44;5071511;28;45407;-62
2023/01/10 06:21:42;;;;;;;;;3.00;2.50;;;;;6.75;69.94;101457.09;5055560;28;45549;-62
2023/01/10 06:24:08;;;;;;;;;2.00;2.00;;;;;6.74;70.44;101449.94;5055924;28;45293;-62
2023/01/10 06:26:34;;;;;;;;;7.40;3.40;;;;;6.40;70.13;101405.38;5037420;28;45471;-62
2023/01/10 06:28:59;;;;;;;;;15.75;15.00;;;;;6.70;70.59;101448.56;5056211;28;45387;-63
2023/01/10 06:31:25;;;;;;;;;14.50;9.25;;;;;6.74;70.95;101456.22;5054027;28;46978;-63
2023/01/10 06:33:51;;;;;;;;;3.00;1.80;;;;;6.79;70.34;101455.75;5071651;28;45379;-63
2023/01/10 06:36:17;;;;;;;;;6.00;1.50;;;;;6.82;70.43;101457.28;5055632;28;45333;-62
2023/01/10 06:38:42;;;;;;;;;5.25;3.75;;;;;6.75;70.41;101452.50;5055816;28;45429;-62
2023/01/10 06:41:13;;;;;;;;;3.00;2.75;;;;;6.79;70.25;101461.19;5053932;28;47686;-62
2023/01/10 06:43:44;;;;;;;;;5.40;1.60;;;;;6.77;70.49;101465.94;5054913;28;45298;-64
2023/01/10 06:46:10;;;;;;;;;4.20;2.00;;;;;6.78;70.26;101470.41;5044279;28;45444;-63
2023/01/10 06:48:36;;;;;;;;;5.40;4.60;;;;;6.70;70.78;101464.94;5052760;28;45299;-63
2023/01/10 06:51:02;;;;;;;;;5.50;2.50;;;;;6.82;70.28;101477.22;5054333;28;45438;-63
2023/01/10 06:53:28;;;;;;;;;4.60;2.00;;;;;6.84;70.46;101477.91;5053828;28;45256;-63
2023/01/10 06:55:54;;;;;;;;;1.25;1.25;;;;;6.83;70.09;101469.91;5054884;28;45355;-63
2023/01/10 06:58:20;;;;;;;;;3.00;2.00;;;;;6.64;70.66;101442.78;5054220;28;45386;-63
2023/01/10 07:00:45;;;;;;;;;2.00;2.00;;;;;6.85;70.76;101476.91;5063001;28;47556;-62
2023/01/10 07:03:10;;;;;;;;;4.00;3.00;;;;;6.86;70.68;101467.69;5054119;28;45408;-63
2023/01/10 07:05:37;;;;;;;;;2.25;2.25;;;;;6.83;70.08;101469.91;5053537;28;45400;-63
2023/01/10 07:08:03;;;;;;;;;2.20;1.60;;;;;6.75;70.64;101465.28;5053511;28;45498;-63
2023/01/10 07:10:28;;;;;;;;;7.50;3.00;;;;;6.73;70.51;101473.63;5053764;28;45485;-63
2023/01/10 07:12:54;;;;;;;;;5.00;3.50;;;;;6.79;70.24;101472.13;5053027;28;45384;-61
2023/01/10 07:15:20;;;;;;;;;5.40;5.40;;;;;6.73;70.78;101470.06;5054899;28;45250;-62
2023/01/10 07:17:45;;;;;;;;;8.50;2.50;;;;;6.72;71.36;101463.72;5054379;28;45316;-62
2023/01/10 07:20:11;;;;;;;;;2.50;2.50;;;;;6.59;71.31;101439.69;5054690;28;46153;-61
2023/01/10 07:22:36;;;;;;;;;3.00;3.00;;;;;6.55;71.08;101430.13;5054336;28;45331;-62
2023/01/10 07:25:02;;;;;;;;;3.00;3.00;;;;;6.72;71.01;101463.72;5054988;28;45251;-62
2023/01/10 07:27:30;;;;;;;;;6.00;3.40;;;;;6.73;71.18;101462.72;5054920;28;45574;-62
2023/01/10 07:29:56;;;;;;;;;6.40;3.00;;;;;6.71;71.33;101458.44;5054121;28;46164;-62
2023/01/10 07:32:21;;;;;;;;;5.00;5.00;;;;;6.68;71.20;101458.78;5054335;28;45398;-63
2023/01/10 07:34:47;;;;;;;;;9.00;5.00;;;;;6.68;71.15;101459.66;5054455;28;45657;-62
2023/01/10 07:37:12;;;;;;;;;5.25;5.25;;;;;6.71;71.38;101455.72;5054469;28;45380;-62
2023/01/10 07:39:38;;;;;;;;;2.00;2.00;;;;;6.75;70.95;101457.09;5054312;28;45408;-61
2023/01/10 07:42:03;;;;;;;;;4.50;3.50;;;;;6.72;71.12;101457.44;5054155;28;45421;-63
2023/01/10 07:44:29;;;;;;;;;8.50;3.50;;;;;6.55;70.65;101424.66;5019392;28;45382;-63
2023/01/10 07:46:54;;;;;;;;;6.50;2.25;;;;;6.69;71.04;101453.19;5054250;28;45415;-62
2023/01/10 07:49:20;;;;;;;;;7.00;5.00;;;;;6.51;71.33;101407.78;5047975;28;45981;-64
2023/01/10 07:51:45;;;;;;;;;10.25;6.00;;;;;6.56;71.78;101426.38;5030768;28;45389;-63
2023/01/10 07:54:11;;;;;;;;;2.50;1.25;;;;;6.77;71.67;101453.19;5034344;28;45351;-62
2023/01/10 07:56:37;;;;;;;;;5.00;5.00;;;;;6.80;71.42;101446.53;5033599;28;45511;-62
2023/01/10 07:59:02;;;;;;;;;7.00;6.00;;;;;6.84;71.37;101444.31;5049266;28;45572;-63
2023/01/10 08:01:29;;;;;;;;;6.00;6.00;;;;;6.86;71.02;101447.72;5034159;28;45888;-62
2023/01/10 08:03:55;;;;;;;;;9.60;7.00;;;;;6.90;71.14;101449.09;5033644;28;45374;-63
2023/01/10 08:06:20;;;;;;;;;3.00;3.00;;;;;6.88;71.17;101454.72;5032769;28;45448;-62
2023/01/10 08:08:46;;;;;;;;;2.75;2.75;;;;;6.85;71.14;101446.00;5033925;28;45942;-64
2023/01/10 08:11:11;;;;;;;;;7.50;5.75;;;;;6.87;71.54;101441.22;5033576;28;45292;-63
2023/01/10 08:13:37;;;;;;;;;5.25;5.00;;;;;6.90;70.72;101455.38;5032820;28;45314;-63
2023/01/10 08:16:06;;;;;;;;;11.50;7.00;;;;;6.96;70.82;101453.00;5033822;28;45577;-63
2023/01/10 08:18:31;;;;;;;;;11.80;6.60;;;;;6.99;71.21;101458.97;5033653;28;46793;-63
2023/01/10 08:20:57;;;;;;;;;4.50;2.25;;;;;7.03;70.44;101454.03;5033678;28;45263;-64
2023/01/10 08:23:23;;;;;;;;;5.80;3.40;;;;;7.03;70.89;101452.16;5033809;28;45247;-65
2023/01/10 08:25:50;;;;;;;;;6.00;3.50;;;;;6.90;70.40;101433.56;4999807;28;45168;-64
2023/01/10 08:28:15;;;;;;;;;3.60;3.40;;;;;6.84;70.76;101417.84;5033578;28;46617;-62
2023/01/10 08:30:41;;;;;;;;;2.50;2.50;;;;;7.10;71.01;101455.03;5034966;28;45428;-64
2023/01/10 08:33:07;;;;;;;;;7.75;6.50;;;;;7.06;70.78;101453.69;5037528;28;45303;-62
2023/01/10 08:35:40;;;;;;;;;5.60;5.60;;;;;7.01;70.47;101451.50;5019357;28;45406;-61
2023/01/10 08:38:05;;;;;;;;;4.20;4.20;;;;;7.05;70.31;101454.72;5052350;28;46625;-62
2023/01/10 08:40:31;;;;;;;;;4.50;2.50;;;;;7.03;70.79;101437.66;5036951;28;45386;-62
2023/01/10 08:43:01;;;;;;;;;5.75;4.00;;;;;7.04;70.68;101450.25;5037056;28;45408;-62
2023/01/10 08:45:26;;;;;;;;;7.80;5.00;;;;;6.99;71.29;101447.22;5052143;28;45548;-62
2023/01/10 08:47:52;;;;;;;;;9.25;8.00;;;;;6.77;71.27;101411.38;5036930;28;46390;-61
2023/01/10 08:50:18;;;;;;;;;11.75;8.75;;;;;6.93;71.47;101445.19;5037066;28;45158;-63
2023/01/10 08:52:43;;;;;;;;;8.50;6.50;;;;;7.01;71.17;101451.50;5019193;28;45234;-62
2023/01/10 08:55:09;;;;;;;;;10.50;9.50;;;;;7.04;71.67;101458.47;5037562;28;45409;-62
2023/01/10 08:57:34;;;;;;;;;11.25;10.00;;;;;7.08;71.22;101459.84;5051982;28;45820;-62
2023/01/10 09:00:00;;;;;;;;;12.25;8.50;;;;;6.89;71.69;101429.13;5036996;28;45152;-61
2023/01/10 09:02:25;;;;;;;;;5.00;3.00;;;;;7.04;71.91;101455.72;5037034;28;45410;-62
2023/01/10 09:04:51;;;;;;;;;13.25;6.75;;;;;7.09;71.80;101463.44;5052214;28;45397;-63
2023/01/10 09:07:16;;;;;;;;;8.50;7.00;;;;;7.05;71.99;101454.72;5001862;28;45647;-62
2023/01/10 09:09:42;;;;;;;;;6.75;4.00;;;;;7.11;72.46;101459.50;5023709;28;45358;-63
2023/01/10 09:12:53;;;;;;;;;11.25;8.75;;;;;7.14;71.98;101455.56;5036300;28;45433;-62
2023/01/10 09:14:53;;;;;;;;;12.00;9.00;;;;;7.14;72.40;101455.56;5054401;28;45648;-63
2023/01/10 09:17:18;;;;;;;;;11.00;7.00;;;;;7.17;72.58;101452.50;5056172;28;45553;-63
2023/01/10 09:19:44;;;;;;;;;6.75;6.75;;;;;7.19;72.66;101459.50;5056483;28;45822;-63
2023/01/10 09:22:09;;;;;;;;;10.50;9.00;;;;;7.21;72.69;101453.00;5038453;28;45328;-63
2023/01/10 09:24:36;;;;;;;;;10.75;8.50;;;;;7.12;72.99;101436.63;5056811;28;45342;-63
2023/01/10 09:27:02;;;;;;;;;6.20;6.20;;;;;7.21;73.35;101448.41;5056116;28;46687;-63
2023/01/10 09:29:28;;;;;;;;;5.20;5.20;;;;;7.16;73.60;101437.16;5056462;28;45434;-62
2023/01/10 09:31:53;;;;;;;;;10.00;8.75;;;;;7.12;73.83;101436.63;5071986;28;45678;-63
2023/01/10 09:34:19;;;;;;;;;6.00;6.00;;;;;7.13;74.42;101432.88;5056820;28;45314;-63
2023/01/10 09:36:44;;;;;;;;;11.00;7.00;;;;;7.09;74.13;101430.66;5055997;28;46358;-64
2023/01/10 09:39:10;;;;;;;;;11.75;10.00;;;;;7.02;74.51;101428.63;5056708;28;45401;-62
2023/01/10 09:41:54;;;;;;;;;14.75;11.50;;;;;6.88;74.43;101396.56;5055924;28;45312;-63
2023/01/10 09:44:22;;;;;;;;;10.40;9.00;;;;;7.07;74.89;101433.56;5056242;28;45487;-63
2023/01/10 09:47:17;;;;;;;;;10.80;9.20;;;;;6.89;74.90;101398.28;5037709;28;47651;-65
2023/01/10 09:49:49;;;;;;;;;12.80;9.80;;;;;6.49;75.64;101341.66;5037559;28;46146;-67
2023/01/10 09:52:39;;;;;;;;;18.60;12.20;;;;;7.07;75.10;101411.72;5055889;28;45494;-60
2023/01/10 09:55:22;;;;;;;;;9.40;6.20;;;;;7.08;75.39;101416.16;5038363;28;45327;-61
2023/01/10 09:57:48;;;;;;;;;13.80;9.20;;;;;6.87;75.94;101381.19;5053048;28;45377;-62
2023/01/10 10:00:19;;;;;;;;;10.25;6.50;;;;;7.11;76.18;101424.00;5056081;28;45424;-61
2023/01/10 10:02:46;;;;;;;;;12.60;9.80;;;;;7.21;75.88;101422.97;5021112;28;45295;-64
2023/01/10 10:05:14;;;;;;;;;13.80;12.20;;;;;7.26;75.39;101423.31;5038246;28;45407;-64
2023/01/10 10:07:39;;;;;;;;;9.20;7.80;;;;;7.29;75.55;101428.41;5055506;28;46290;-64
2023/01/10 10:10:11;;;;;;;;;15.00;12.00;;;;;7.11;75.88;101391.25;5012078;28;46297;-64
2023/01/10 10:12:53;;;;;;;;;11.80;8.20;;;;;7.25;75.98;101418.88;5017460;28;45356;-63
2023/01/10 10:15:38;;;;;;;;;11.80;8.60;;;;;7.31;75.97;101423.66;5003428;28;45354;-62
2023/01/10 10:18:31;;;;;;;;;9.40;8.60;;;;;7.28;76.17;101416.66;5035341;28;46535;-61
2023/01/10 10:21:08;;;;;;;;;12.40;6.40;;;;;7.35;76.08;101415.97;5035185;28;45364;-61
2023/01/10 10:23:42;;;;;;;;;7.40;6.80;;;;;7.38;75.66;101419.19;5048436;28;45397;-62
2023/01/10 10:26:20;;;;;;;;;9.80;9.20;;;;;7.42;75.97;101416.97;5055541;28;45318;-61
2023/01/10 10:28:55;;;;;;;;;5.20;5.20;;;;;7.43;75.92;101407.75;5020732;28;46595;-61
2023/01/10 10:31:35;;;;;;;;;7.80;6.00;;;;;7.40;76.07;101397.16;5055255;28;45459;-61
2023/01/10 10:34:27;;;;;;;;;9.20;7.20;;;;;7.44;75.98;101396.66;5055411;28;45361;-61
2023/01/10 10:36:58;;;;;;;;;7.20;7.20;;;;;7.45;75.92;101379.22;5037839;28;45356;-62
2023/01/10 10:39:35;;;;;;;;;6.60;5.60;;;;;7.47;75.73;101373.56;5036688;28;45342;-60
2023/01/10 10:42:01;;;;;;;;;13.80;7.00;;;;;7.50;76.88;101359.56;5048321;28;45389;-62
2023/01/10 10:44:42;;;;;;;;;9.25;6.00;;;;;7.53;76.52;101366.56;5054193;28;45468;-60
2023/01/10 10:47:22;;;;;;;;;10.60;6.60;;;;;7.30;76.14;101315.41;5008029;28;45788;-60
2023/01/10 10:50:09;;;;;;;;;14.00;7.00;;;;;7.54;76.14;101347.28;5050171;28;45608;-60
2023/01/10 10:52:35;;;;;;;;;11.40;5.20;;;;;7.56;76.38;101352.53;5035182;28;45397;-61
2023/01/10 10:55:01;;;;;;;;;6.75;5.75;;;;;7.58;76.25;101347.78;5053710;28;45460;-60
2023/01/10 10:57:27;;;;;;;;;7.20;6.20;;;;;7.53;76.63;101333.78;5036078;28;45674;-59
2023/01/10 10:59:53;;;;;;;;;10.00;3.40;;;;;7.55;76.43;101339.91;5034694;28;46110;-61
2023/01/10 11:02:27;;;;;;;;;5.00;5.00;;;;;7.52;76.67;101322.00;5049200;28;45634;-59
2023/01/10 11:04:56;;;;;;;;;6.60;5.00;;;;;7.64;76.97;101336.13;5053272;28;45406;-59
2023/01/10 11:07:22;;;;;;;;;10.80;6.00;;;;;7.62;76.19;101320.94;5031717;28;46182;-59
2023/01/10 11:12:20;;;;;;;;;5.60;3.00;;;;;7.61;76.30;101311.88;5040683;28;45896;-60
2023/01/10 11:14:47;;;;;;;;;8.00;5.80;;;;;7.60;76.72;101308.28;5005285;28;45511;-60
2023/01/10 11:17:27;;;;;;;;;7.00;5.20;;;;;7.39;76.99;101270.69;5015514;28;45622;-59
2023/01/10 11:19:56;;;;;;;;;7.40;5.00;;;;;7.61;77.00;101292.75;5049306;28;46656;-60
2023/01/10 11:22:22;;;;;;;;;7.00;4.60;;;;;7.59;77.61;101278.44;5051371;28;45460;-60
2023/01/10 11:24:58;;;;;;;;;15.25;8.75;;;;;7.63;77.66;101284.38;5030899;28;45484;-60
2023/01/10 11:27:32;;;;;;;;;7.40;5.00;;;;;7.48;77.96;101271.50;5032502;28;45419;-62
2023/01/10 11:29:58;;;;;;;;;11.60;7.00;;;;;7.31;78.12;101227.03;5035113;28;45990;-61
2023/01/10 11:32:37;;;;;;;;;4.50;4.00;;;;;7.54;77.99;101259.00;5035044;27;45857;-62
2023/01/10 11:35:08;;;;;;;;;5.80;5.80;;;;;7.59;78.02;101270.25;5035376;28;45534;-62
2023/01/10 11:37:34;;;;;;;;;6.20;6.20;;;;;7.24;78.62;101195.97;5016819;28;45441;-63
2023/01/10 11:40:27;;;;;;;;;8.00;6.00;;;;;7.58;78.48;101231.13;5016660;28;48114;-65
2023/01/10 11:42:54;;;;;;;;;8.60;6.80;;;;;7.47;78.62;101212.41;5033349;28;45502;-64
2023/01/10 11:45:30;;;;;;;;;5.20;5.00;;;;;7.51;78.52;101201.97;5050127;28;45792;-63
2023/01/10 11:48:04;;;;;;;;;5.80;5.00;;;;;7.73;79.02;101231.22;5044980;27;45397;-65
2023/01/10 11:50:37;;;;;;;;;7.00;2.60;;;;;7.75;78.98;101222.84;5049914;28;48820;-64
2023/01/10 11:53:04;;;;;;;;;7.20;5.00;;;;;7.70;79.33;101228.81;5050246;28;45753;-65